Niagara District Airport
CYSN : now visible

Airfield :











YOU CAN JOIN US ON...

 
LOGIN :

Register | Disclaimer

   EN    FR    IT 

 









Legend :    VFR   Marginal VFR   IFR   Intensive IFR   Very Intensive IFR
Visi :
Ceiling :
>= 8 km
>= 3000ft
5 to 8 km
1000 to 3000 ft
1500m to 5 km
500 to 1000 ft
800 to 1500m
200 to 500 ft
< 800m
< 200 ft
Symbols :   Thunderstorms  Fog  Heavy snow  Heavy precipitations  Wind > 20 kt






- Airport Elevation : 321 ft
- IATA code : YCM


CYSN - Niagara District

CURRENT METAR :
  • 120200Z 24006KT 15SM SCT047 M07/M13 A3049 RMK SC3 LAST STFD OBS/NEXT 121200 UTC SLP333

EXPIRED METARs :
  • 120100Z 26013KT 15SM BKN048 M06/M13 A3047 RMK SC6 SLP324
  • 120000Z 27013G25KT 15SM SCT040 M05/M13 A3044 RMK SC3 PRESRR SLP315

Expired Forecast.



MET'MAP, your aeronautical weather chart ! - Copyright ORBIFLY December 2007 - Disclaimer

ORBIFLY MET'MAP TEAM :

Programming & Development : Alexandra Zaïnal
Concept & original design : Baudouin d'Aumeries
Assistance for programming : Marc-Olivier Méhu
Technical & hardware support : Manuel Goepfert

Contact : metmap@orbifly.com




SOURCES & CREDITS :

   NOAA       Earth
Advisory